createdAt,value
2023-08-28T00:01:29.983Z,15.92
2023-08-28T00:03:56.781Z,15.89
2023-08-28T00:06:29.755Z,15.93
2023-08-28T00:09:01.772Z,15.91
2023-08-28T00:11:39.158Z,15.89
2023-08-28T00:14:05.802Z,15.89
2023-08-28T00:16:32.361Z,15.91
2023-08-28T00:18:59.081Z,15.91
2023-08-28T00:21:25.720Z,15.91
2023-08-28T00:23:52.372Z,15.91
2023-08-28T00:26:22.193Z,15.91
2023-08-28T00:28:48.863Z,15.89
2023-08-28T00:31:15.558Z,15.92
2023-08-28T00:33:44.560Z,15.95
2023-08-28T00:36:17.224Z,15.91
2023-08-28T00:38:45.073Z,15.93
2023-08-28T00:41:12.668Z,15.91
2023-08-28T00:43:39.397Z,15.89
2023-08-28T00:46:24.976Z,15.92
2023-08-28T00:48:51.594Z,15.98
2023-08-28T00:51:18.313Z,16.01
2023-08-28T00:53:45.065Z,15.98
2023-08-28T00:56:11.729Z,15.94
2023-08-28T00:58:38.459Z,15.97
2023-08-28T01:01:05.201Z,15.96
2023-08-28T01:03:31.852Z,15.98
2023-08-28T01:06:27.075Z,16.05
2023-08-28T01:09:04.555Z,15.98
2023-08-28T01:11:37.773Z,15.89
2023-08-28T01:14:21.491Z,15.84
2023-08-28T01:16:49.997Z,15.89
2023-08-28T01:19:38.104Z,15.92
2023-08-28T01:22:11.430Z,15.99
2023-08-28T01:24:46.049Z,15.99
2023-08-28T01:27:19.129Z,16.01
2023-08-28T01:29:45.827Z,16.01
2023-08-28T01:32:20.614Z,15.99
2023-08-28T01:34:47.249Z,15.93
2023-08-28T01:37:24.068Z,15.88
2023-08-28T01:39:58.842Z,15.81
2023-08-28T01:42:29.677Z,15.89
2023-08-28T01:45:03.102Z,15.93
2023-08-28T01:50:11.368Z,15.86
2023-08-28T01:52:38.717Z,15.84
2023-08-28T01:55:06.605Z,15.79
2023-08-28T01:57:35.440Z,15.77
2023-08-28T02:00:13.583Z,15.86
2023-08-28T02:02:49.035Z,15.90
2023-08-28T02:05:19.968Z,15.91
2023-08-28T02:07:46.798Z,15.94
2023-08-28T02:10:20.716Z,15.96
2023-08-28T02:13:14.647Z,15.98
2023-08-28T02:15:52.401Z,15.92
2023-08-28T02:18:30.076Z,15.86
2023-08-28T02:20:57.253Z,15.84
2023-08-28T02:23:26.976Z,15.81
2023-08-28T02:25:54.145Z,15.77
2023-08-28T02:28:20.851Z,15.79
2023-08-28T02:30:47.621Z,15.78
2023-08-28T02:33:14.740Z,15.75
2023-08-28T02:35:43.194Z,15.71
2023-08-28T02:38:10.471Z,15.76
2023-08-28T02:40:38.867Z,15.79
2023-08-28T02:43:10.962Z,15.79
2023-08-28T02:45:40.877Z,15.82
2023-08-28T02:48:21.873Z,15.78
2023-08-28T02:50:58.063Z,15.69
2023-08-28T02:53:24.632Z,15.73
2023-08-28T02:56:12.706Z,15.68
2023-08-28T02:58:39.408Z,15.65
2023-08-28T03:01:06.069Z,15.61
2023-08-28T03:03:35.264Z,15.62
2023-08-28T03:06:02.876Z,15.62
2023-08-28T03:08:29.990Z,15.66
2023-08-28T03:10:57.194Z,15.62
2023-08-28T03:13:32.528Z,15.57
2023-08-28T03:16:03.570Z,15.54
2023-08-28T03:18:30.640Z,15.57
2023-08-28T03:20:57.312Z,15.53
2023-08-28T03:23:28.569Z,15.45
2023-08-28T03:25:55.303Z,15.49
2023-08-28T03:28:24.946Z,15.57
2023-08-28T03:30:54.733Z,15.59
2023-08-28T03:33:21.354Z,15.55
2023-08-28T03:35:50.407Z,15.54
2023-08-28T03:38:18.151Z,15.53
2023-08-28T03:40:58.107Z,15.53
2023-08-28T03:43:25.629Z,15.55
2023-08-28T03:45:52.278Z,15.52
2023-08-28T03:48:20.569Z,15.50
2023-08-28T03:50:47.492Z,15.49
2023-08-28T03:53:14.192Z,15.43
2023-08-28T03:55:40.728Z,15.40
2023-08-28T04:28:57.817Z,14.57
2023-08-28T04:31:24.814Z,14.69
2023-08-28T04:33:51.623Z,14.89
2023-08-28T04:36:18.381Z,15.12
2023-08-28T04:38:45.099Z,15.36
2023-08-28T04:41:11.909Z,15.58
2023-08-28T04:43:39.364Z,15.70
2023-08-28T04:46:06.291Z,15.91
2023-08-28T04:48:33.138Z,16.07
2023-08-28T04:50:59.982Z,15.56
2023-08-28T04:53:26.684Z,16.23
2023-08-28T04:55:54.181Z,16.31
2023-08-28T04:58:21.722Z,16.33
2023-08-28T05:00:48.460Z,16.34
2023-08-28T05:03:15.436Z,16.23
2023-08-28T05:05:44.747Z,16.44
2023-08-28T05:08:13.049Z,16.45
2023-08-28T05:10:39.710Z,16.41
2023-08-28T05:13:06.638Z,16.53
2023-08-28T05:15:34.651Z,16.47
2023-08-28T05:18:01.840Z,16.43
2023-08-28T05:20:29.826Z,16.36
2023-08-28T05:22:56.859Z,16.29
2023-08-28T05:25:24.458Z,16.35
2023-08-28T05:27:56.477Z,16.13
2023-08-28T05:30:24.894Z,16.21
2023-08-28T05:32:51.612Z,16.57
2023-08-28T05:35:18.696Z,16.53
2023-08-28T05:37:45.535Z,16.52
2023-08-28T05:40:15.822Z,16.34
2023-08-28T05:42:45.452Z,15.98
2023-08-28T05:45:12.452Z,16.42
2023-08-28T05:47:39.266Z,16.50
2023-08-28T05:50:06.885Z,16.31
2023-08-28T05:52:33.848Z,16.52
2023-08-28T05:55:00.575Z,16.60
2023-08-28T05:57:27.253Z,16.65
2023-08-28T05:59:54.045Z,16.70
2023-08-28T06:02:20.787Z,16.47
2023-08-28T06:04:50.366Z,16.69
2023-08-28T06:07:18.488Z,16.68
2023-08-28T06:09:45.477Z,16.57
2023-08-28T06:12:13.101Z,16.59
2023-08-28T06:14:39.889Z,16.22
2023-08-28T06:17:07.219Z,16.57
2023-08-28T06:19:34.175Z,16.57
2023-08-28T06:22:05.842Z,16.53
2023-08-28T06:24:32.959Z,16.60
2023-08-28T06:27:00.131Z,16.57
2023-08-28T06:29:27.125Z,16.63
2023-08-28T06:31:54.008Z,16.07
2023-08-28T06:34:21.248Z,16.67
2023-08-28T06:36:50.619Z,16.55
2023-08-28T06:39:17.421Z,16.77
2023-08-28T06:41:44.370Z,16.75
2023-08-28T06:44:12.918Z,16.73
2023-08-28T06:46:39.697Z,16.71
2023-08-28T06:49:06.466Z,16.62
2023-08-28T06:51:33.190Z,16.71
2023-08-28T06:53:59.884Z,16.79
2023-08-28T06:56:26.634Z,16.82
2023-08-28T06:58:53.401Z,16.85
2023-08-28T07:01:20.482Z,16.70
2023-08-28T07:03:47.890Z,16.78
2023-08-28T07:06:15.005Z,16.71
2023-08-28T07:08:41.768Z,16.67
2023-08-28T07:11:11.338Z,16.81
2023-08-28T07:13:38.705Z,16.93
2023-08-28T07:16:05.472Z,16.94
2023-08-28T07:18:32.251Z,17.02
2023-08-28T07:20:59.049Z,16.92
2023-08-28T07:23:26.595Z,16.93
2023-08-28T07:25:53.392Z,16.89
2023-08-28T07:28:21.385Z,17.00
2023-08-28T07:30:48.176Z,17.18
2023-08-28T07:33:15.102Z,17.04
2023-08-28T07:35:46.379Z,17.09
2023-08-28T07:38:14.834Z,17.33
2023-08-28T07:40:42.155Z,17.06
2023-08-28T07:43:08.984Z,16.93
2023-08-28T07:45:35.687Z,17.06
2023-08-28T07:48:02.557Z,16.56
2023-08-28T07:50:31.162Z,17.03
2023-08-28T07:53:01.329Z,17.00
2023-08-28T07:55:28.490Z,16.97
2023-08-28T07:57:55.204Z,16.39
2023-08-28T08:00:23.132Z,16.66
2023-08-28T08:02:52.568Z,16.69
2023-08-28T08:05:20.159Z,16.82
2023-08-28T08:07:47.054Z,16.80
2023-08-28T08:10:14.880Z,16.78
2023-08-28T08:12:41.771Z,16.97
2023-08-28T08:15:09.312Z,16.98
2023-08-28T08:17:39.008Z,16.98
2023-08-28T08:20:12.305Z,16.77
2023-08-28T08:22:39.664Z,17.00
2023-08-28T08:25:07.591Z,16.88
2023-08-28T08:27:34.884Z,16.87
2023-08-28T08:30:01.663Z,17.08
2023-08-28T08:32:28.397Z,16.96
2023-08-28T08:34:58.475Z,17.10
2023-08-28T08:37:25.185Z,17.05
2023-08-28T08:39:51.997Z,16.98
2023-08-28T08:42:18.884Z,17.02
2023-08-28T08:44:45.753Z,16.97
2023-08-28T08:47:12.974Z,16.88
2023-08-28T08:49:41.331Z,16.92
2023-08-28T08:52:10.034Z,16.94
2023-08-28T08:54:41.916Z,16.98
2023-08-28T08:57:19.439Z,16.97
2023-08-28T08:59:47.367Z,16.44
2023-08-28T09:02:14.345Z,16.37
2023-08-28T09:04:42.712Z,17.06
2023-08-28T09:07:14.792Z,17.15
2023-08-28T09:09:45.949Z,17.26
2023-08-28T09:12:14.844Z,17.27
2023-08-28T09:14:41.898Z,17.32
2023-08-28T09:17:08.705Z,17.31
2023-08-28T09:19:35.982Z,17.32
2023-08-28T09:22:04.700Z,17.23
2023-08-28T09:24:31.618Z,17.09
2023-08-28T09:26:58.305Z,17.06
2023-08-28T09:29:25.425Z,17.04
2023-08-28T09:32:00.861Z,17.18
2023-08-28T09:34:37.324Z,16.85
2023-08-28T09:37:04.589Z,17.37
2023-08-28T09:39:33.345Z,17.55
2023-08-28T09:42:00.267Z,17.20
2023-08-28T09:44:27.186Z,17.06
2023-08-28T09:46:54.571Z,17.27
2023-08-28T09:49:21.244Z,17.36
2023-08-28T09:51:50.392Z,17.37
2023-08-28T09:54:17.871Z,17.38
2023-08-28T09:56:45.653Z,17.41
2023-08-28T09:59:14.479Z,17.26
2023-08-28T10:01:41.765Z,17.26
2023-08-28T10:04:10.876Z,17.33
2023-08-28T10:06:52.375Z,16.97
2023-08-28T10:09:21.161Z,17.42
2023-08-28T10:11:51.448Z,17.07
2023-08-28T10:14:35.229Z,17.43
2023-08-28T10:17:06.501Z,17.54
2023-08-28T10:19:39.697Z,17.71
2023-08-28T10:22:16.968Z,17.69
2023-08-28T10:24:45.342Z,17.64
2023-08-28T10:27:28.544Z,17.72
2023-08-28T10:29:57.844Z,17.56
2023-08-28T10:32:25.639Z,17.47
2023-08-28T10:34:58.834Z,17.75
2023-08-28T10:37:29.130Z,17.83
2023-08-28T10:40:02.177Z,17.86
2023-08-28T10:42:33.615Z,17.77
2023-08-28T10:45:02.516Z,17.64
2023-08-28T10:47:32.853Z,17.89
2023-08-28T10:49:59.643Z,17.93
2023-08-28T10:52:29.179Z,17.81
2023-08-28T10:55:07.892Z,17.83
2023-08-28T10:57:40.592Z,17.83
2023-08-28T11:00:22.988Z,17.90
2023-08-28T11:03:16.506Z,18.01
2023-08-28T11:05:43.812Z,17.40
2023-08-28T11:08:13.088Z,17.97
2023-08-28T11:11:12.860Z,17.96
2023-08-28T11:13:39.871Z,17.81
2023-08-28T11:16:10.604Z,17.74
2023-08-28T11:19:01.469Z,17.79
2023-08-28T11:21:40.935Z,17.51
2023-08-28T11:24:29.447Z,17.73
2023-08-28T11:27:27.151Z,17.78
2023-08-28T11:29:56.885Z,17.90
2023-08-28T11:32:27.626Z,17.85
2023-08-28T11:34:55.694Z,17.92
2023-08-28T11:37:38.390Z,17.92
2023-08-28T11:40:24.501Z,17.94
2023-08-28T11:43:08.511Z,18.02
2023-08-28T11:45:48.246Z,18.01
2023-08-28T11:48:19.675Z,18.04
2023-08-28T11:50:46.441Z,18.04
2023-08-28T11:53:13.130Z,18.05
2023-08-28T11:55:40.307Z,17.81
2023-08-28T11:58:08.729Z,17.45
2023-08-28T12:00:35.609Z,18.08
2023-08-28T12:03:02.723Z,16.62
2023-08-28T12:05:30.087Z,18.30
2023-08-28T12:08:03.727Z,18.32
2023-08-28T12:10:40.567Z,18.30
2023-08-28T12:13:07.276Z,18.15
2023-08-28T12:15:38.469Z,18.19
2023-08-28T12:18:07.391Z,17.26
2023-08-28T12:20:35.259Z,18.25
2023-08-28T12:23:02.779Z,17.68
2023-08-28T12:25:40.275Z,18.22
2023-08-28T12:28:12.102Z,18.29
2023-08-28T12:30:42.873Z,18.40
2023-08-28T12:33:10.410Z,18.52
2023-08-28T12:35:39.013Z,18.55
2023-08-28T12:38:05.976Z,18.57
2023-08-28T12:40:43.637Z,18.53
2023-08-28T12:43:14.453Z,18.48
2023-08-28T12:45:43.223Z,18.51
2023-08-28T12:48:09.965Z,18.48
2023-08-28T12:50:41.470Z,18.54
2023-08-28T12:53:08.837Z,18.55
2023-08-28T12:55:36.041Z,18.47
2023-08-28T12:58:02.928Z,18.44
2023-08-28T13:00:29.888Z,18.57
2023-08-28T13:02:56.836Z,18.67
2023-08-28T13:05:23.718Z,18.69
2023-08-28T13:07:50.449Z,18.65
2023-08-28T13:10:17.681Z,18.26
2023-08-28T13:12:44.556Z,18.51
2023-08-28T13:15:11.357Z,18.77
2023-08-28T13:17:43.669Z,18.14
2023-08-28T13:20:11.111Z,18.58
2023-08-28T13:22:38.183Z,18.80
2023-08-28T13:25:05.697Z,18.90
2023-08-28T13:27:33.746Z,18.91
2023-08-28T13:30:06.420Z,18.87
2023-08-28T13:32:34.822Z,18.84
2023-08-28T13:35:01.685Z,18.84
2023-08-28T13:37:29.189Z,18.92
2023-08-28T13:39:57.410Z,18.94
2023-08-28T13:42:24.207Z,18.87
2023-08-28T13:44:53.061Z,18.80
2023-08-28T13:47:20.557Z,18.78
2023-08-28T13:49:51.280Z,18.71
2023-08-28T13:52:18.674Z,18.69
2023-08-28T13:54:45.907Z,18.25
2023-08-28T13:57:12.683Z,18.68
2023-08-28T13:59:39.457Z,18.76
2023-08-28T14:02:06.767Z,18.73
2023-08-28T14:04:34.470Z,18.77
2023-08-28T14:07:01.903Z,18.83
2023-08-28T14:09:29.059Z,18.71
2023-08-28T14:11:55.729Z,18.96
2023-08-28T14:14:22.527Z,19.18
2023-08-28T14:16:53.141Z,18.79
2023-08-28T14:19:26.538Z,18.36
2023-08-28T14:21:57.394Z,19.06
2023-08-28T14:24:28.801Z,17.69
2023-08-28T14:26:59.108Z,19.10
2023-08-28T14:29:30.384Z,18.99
2023-08-28T14:31:58.862Z,19.07
2023-08-28T14:34:28.425Z,19.16
2023-08-28T14:36:56.562Z,19.08
2023-08-28T14:39:23.525Z,18.44
2023-08-28T14:41:50.358Z,19.01
2023-08-28T14:44:17.086Z,19.20
2023-08-28T14:46:43.894Z,19.12
2023-08-28T14:49:10.580Z,19.08
2023-08-28T14:51:37.299Z,18.94
2023-08-28T14:54:05.439Z,18.71
2023-08-28T14:56:32.397Z,18.59
2023-08-28T14:58:59.664Z,18.92
2023-08-28T15:01:26.904Z,18.40
2023-08-28T15:03:54.127Z,18.90
2023-08-28T15:06:20.939Z,18.55
2023-08-28T15:08:47.649Z,16.77
2023-08-28T15:11:14.449Z,18.15
2023-08-28T15:13:41.125Z,18.15
2023-08-28T15:16:08.739Z,17.11
2023-08-28T15:18:35.651Z,15.64
2023-08-28T15:21:02.989Z,15.81
2023-08-28T15:23:29.716Z,15.23
2023-08-28T15:25:56.957Z,15.10
2023-08-28T15:28:23.760Z,14.96
2023-08-28T15:30:53.620Z,14.61
2023-08-28T15:33:20.474Z,14.96
2023-08-28T15:35:47.137Z,14.45
2023-08-28T15:38:13.932Z,13.15
2023-08-28T15:40:42.019Z,15.37
2023-08-28T15:43:09.494Z,15.68
2023-08-28T15:45:36.360Z,15.97
2023-08-28T15:48:06.429Z,15.91
2023-08-28T15:50:33.697Z,15.83
2023-08-28T15:53:00.430Z,15.88
2023-08-28T15:55:27.196Z,15.91
2023-08-28T15:57:53.878Z,16.14
2023-08-28T16:00:20.916Z,16.70
2023-08-28T16:02:48.874Z,16.83
2023-08-28T16:05:15.785Z,16.82
2023-08-28T16:07:42.652Z,16.99
2023-08-28T16:10:10.370Z,16.58
2023-08-28T16:12:37.062Z,17.04
2023-08-28T16:15:04.158Z,17.12
2023-08-28T16:17:33.375Z,17.12
2023-08-28T16:20:00.240Z,17.20
2023-08-28T16:22:26.978Z,17.25
2023-08-28T16:24:53.679Z,17.32
2023-08-28T16:27:20.427Z,17.32
2023-08-28T16:29:47.209Z,17.38
2023-08-28T16:32:13.915Z,17.40
2023-08-28T16:34:40.765Z,17.51
2023-08-28T16:37:07.510Z,17.51
2023-08-28T16:39:34.335Z,17.52
2023-08-28T16:42:01.063Z,17.59
2023-08-28T16:44:27.878Z,17.59
2023-08-28T16:46:54.593Z,17.58
2023-08-28T16:49:21.523Z,17.63
2023-08-28T16:51:48.260Z,17.49
2023-08-28T16:54:15.143Z,16.59
2023-08-28T16:56:41.806Z,17.22
2023-08-28T16:59:08.670Z,17.23
2023-08-28T17:01:35.429Z,16.87
2023-08-28T17:04:02.266Z,16.61
2023-08-28T17:06:29.922Z,17.05
2023-08-28T17:08:56.928Z,16.79
2023-08-28T17:11:24.284Z,17.22
2023-08-28T17:13:50.987Z,17.13
2023-08-28T17:16:17.812Z,17.56
2023-08-28T17:18:48.831Z,17.60
2023-08-28T17:21:16.124Z,16.84
2023-08-28T17:23:43.109Z,17.50
2023-08-28T17:26:12.201Z,17.22
2023-08-28T17:28:39.054Z,17.11
2023-08-28T17:31:05.903Z,17.05
2023-08-28T17:33:32.621Z,16.50
2023-08-28T17:36:02.436Z,16.48
2023-08-28T17:38:30.133Z,17.10
2023-08-28T17:40:56.874Z,16.19
2023-08-28T17:43:25.021Z,16.97
2023-08-28T17:45:52.265Z,17.02
2023-08-28T17:48:19.065Z,16.83
2023-08-28T17:50:46.055Z,17.12
2023-08-28T17:53:13.066Z,16.05
2023-08-28T17:55:39.790Z,17.08
2023-08-28T17:58:06.612Z,16.91
2023-08-28T18:00:33.333Z,16.90
2023-08-28T18:03:05.794Z,17.23
2023-08-28T18:05:40.665Z,16.85
2023-08-28T18:08:08.645Z,16.84
2023-08-28T18:10:37.656Z,17.06
2023-08-28T18:13:04.767Z,17.12
2023-08-28T18:15:31.989Z,17.02
2023-08-28T18:17:58.747Z,16.95
2023-08-28T18:20:25.965Z,16.95
2023-08-28T18:22:52.675Z,16.94
2023-08-28T18:25:19.596Z,16.65
2023-08-28T18:28:04.160Z,16.53
2023-08-28T18:30:33.974Z,16.88
2023-08-28T18:33:03.941Z,16.87
2023-08-28T18:35:31.177Z,16.89
2023-08-28T18:37:58.976Z,16.86
2023-08-28T18:40:29.934Z,16.83
2023-08-28T18:42:56.695Z,16.93
2023-08-28T18:45:25.917Z,16.83
2023-08-28T18:47:54.509Z,16.81
2023-08-28T18:50:22.272Z,16.67
2023-08-28T18:52:49.711Z,16.81
2023-08-28T18:55:30.055Z,16.78
2023-08-28T18:57:59.693Z,16.52
2023-08-28T19:00:28.882Z,16.83
2023-08-28T19:02:56.398Z,16.72
2023-08-28T19:05:26.218Z,16.12
2023-08-28T19:07:53.114Z,16.60
2023-08-28T19:10:19.964Z,16.67
2023-08-28T19:12:47.122Z,16.38
2023-08-28T19:15:15.194Z,16.37
2023-08-28T19:17:43.320Z,16.91
2023-08-28T19:20:10.491Z,16.52
2023-08-28T19:22:37.234Z,16.60
2023-08-28T19:25:04.374Z,16.44
2023-08-28T19:27:32.237Z,16.71
2023-08-28T19:29:59.017Z,16.77
2023-08-28T19:32:44.471Z,16.80
2023-08-28T19:35:15.613Z,16.79
2023-08-28T19:37:44.038Z,16.84
2023-08-28T19:40:13.714Z,16.78
2023-08-28T19:42:42.868Z,16.79
2023-08-28T19:45:11.862Z,16.49
2023-08-28T19:47:39.567Z,16.20
2023-08-28T19:50:08.188Z,16.09
2023-08-28T19:52:36.038Z,16.14
2023-08-28T19:55:05.958Z,16.18
2023-08-28T19:57:34.283Z,16.13
2023-08-28T20:00:01.808Z,16.27
2023-08-28T20:02:32.549Z,15.71
2023-08-28T20:04:59.658Z,15.55
2023-08-28T20:07:26.345Z,15.21
2023-08-28T20:09:53.207Z,15.28
2023-08-28T20:12:19.982Z,14.84
2023-08-28T20:14:46.794Z,15.40
2023-08-28T20:17:13.658Z,15.58
2023-08-28T20:19:40.535Z,15.42
2023-08-28T20:22:07.236Z,15.37
2023-08-28T20:24:34.680Z,14.95
2023-08-28T20:27:02.394Z,14.81
2023-08-28T20:29:29.791Z,15.02
2023-08-28T20:31:56.495Z,14.81
2023-08-28T20:34:23.706Z,14.89
2023-08-28T20:36:51.373Z,15.07
2023-08-28T20:39:18.227Z,13.69
2023-08-28T20:41:46.000Z,14.79
2023-08-28T20:44:12.754Z,15.51
2023-08-28T20:46:39.426Z,15.63
2023-08-28T20:49:06.786Z,15.78
2023-08-28T20:51:34.179Z,15.89
2023-08-28T20:54:01.192Z,15.52
2023-08-28T20:56:27.900Z,15.84
2023-08-28T20:58:54.679Z,15.83
2023-08-28T21:01:21.496Z,15.77
2023-08-28T21:03:48.252Z,15.75
2023-08-28T21:06:14.946Z,15.71
2023-08-28T21:08:41.722Z,15.71
2023-08-28T21:11:08.517Z,15.71
2023-08-28T21:13:35.296Z,15.70
2023-08-28T21:16:02.324Z,15.73
2023-08-28T21:18:29.140Z,15.66
2023-08-28T21:20:55.911Z,15.64
2023-08-28T21:23:22.689Z,15.60
2023-08-28T21:25:50.439Z,15.26
2023-08-28T21:28:17.210Z,15.55
2023-08-28T21:30:46.754Z,15.58
2023-08-28T21:33:13.525Z,14.97
2023-08-28T21:35:40.198Z,15.56
2023-08-28T21:38:07.185Z,15.29
2023-08-28T21:40:34.086Z,15.50
2023-08-28T21:43:00.804Z,14.71
2023-08-28T21:45:27.572Z,15.50
2023-08-28T21:47:54.360Z,15.34
2023-08-28T21:50:40.954Z,15.40
2023-08-28T21:53:26.299Z,15.36
2023-08-28T21:56:11.581Z,15.40
2023-08-28T21:58:57.076Z,15.31
2023-08-28T22:01:42.157Z,15.02
2023-08-28T22:04:27.661Z,14.02
2023-08-28T22:07:12.841Z,15.10
2023-08-28T22:09:59.835Z,14.98
2023-08-28T22:12:32.159Z,14.91
2023-08-28T22:15:01.154Z,14.75
2023-08-28T22:17:28.388Z,14.65
2023-08-28T22:19:55.503Z,14.76
2023-08-28T22:22:22.213Z,15.04
2023-08-28T22:24:49.083Z,15.06
2023-08-28T22:27:15.735Z,14.57
2023-08-28T22:29:42.511Z,14.96
2023-08-28T22:32:09.310Z,15.13
2023-08-28T22:34:36.001Z,15.07
2023-08-28T22:37:02.656Z,15.01
2023-08-28T22:39:29.423Z,13.15
2023-08-28T22:41:56.146Z,15.10
2023-08-28T22:44:22.966Z,15.13
2023-08-28T22:46:49.683Z,14.55
2023-08-28T22:49:16.490Z,15.16
2023-08-28T22:51:43.134Z,15.28
2023-08-28T22:54:09.892Z,15.16
2023-08-28T22:56:36.671Z,14.93
2023-08-28T22:59:03.525Z,14.86
2023-08-28T23:01:30.316Z,14.91
2023-08-28T23:03:58.245Z,14.89
2023-08-28T23:06:25.074Z,14.27
2023-08-28T23:08:51.840Z,14.88
2023-08-28T23:11:18.568Z,15.19
2023-08-28T23:13:45.431Z,15.26
2023-08-28T23:16:12.182Z,15.36
2023-08-28T23:18:39.346Z,15.16
2023-08-28T23:21:05.995Z,14.46
2023-08-28T23:23:32.928Z,14.29
2023-08-28T23:25:59.659Z,14.11
2023-08-28T23:28:26.389Z,13.89
2023-08-28T23:30:53.108Z,13.94
2023-08-28T23:33:19.969Z,13.17
2023-08-28T23:35:46.697Z,13.82
2023-08-28T23:38:13.420Z,13.69
2023-08-28T23:40:40.149Z,13.50
2023-08-28T23:43:06.947Z,13.77
2023-08-28T23:45:33.706Z,13.25
2023-08-28T23:48:00.714Z,13.55
2023-08-28T23:50:27.558Z,13.55
2023-08-28T23:52:54.286Z,13.67
2023-08-28T23:55:20.954Z,13.61
2023-08-28T23:57:47.666Z,13.67
